Summitville, Ohio
Current Conditions -  °F | °C
As of 6:53 AM on Sunday 25 Jan 2015 (Local Time) from KPHD Reporting Station
Overcast Overcast  
Wind Chill: 35°   Ceiling: 2200
Heat Index: 35°   Visibility: 7mi
Dew Point: 30°   Wind: 3mph
Humidity: 82%   Direction: 140°SE
Pressure: 29.77"   Gusts: NA
Location:  40.68°N, 80.89°W
Report Text: KPHD 251153Z AUTO 14003KT 7SM FEW012 BKN022 OVC040 02/M01 A2977 RMK AO2 SLP088 60000 T00171011 10017 20011 53004
Loading
Personal Weather Stations






























Interactive Weather Map New forecast layout! Learn more

10-Day Weather Forecast

Advertisements
Track Severe Weather on mobile